Flight Track Log - Related Links

Times and Time Zones

All times are in EDT time to prevent confusion due to time zone crossing. See the CHQ5045 flight status page for this flight to view local times or setup timezone preferences in your user account.


Time Position Orientation Groundspeed Altitude Reporting Facility
EDT Latitude Longitude Course Direction KTS MPH feet Rate Location/Type
Sun 07:52:13 PM 42.1625 -85.6592 273° West 223 257 7,200  Level Chicago Center
Sun 07:53:00 PM 42.1840 -85.8453 259° West  Level FlightAware Approximate
Sun 07:53:15 PM 42.1586 -85.7456 267° West 244 281 9,600  Level Chicago Center
Sun 07:54:00 PM 42.1697 -85.9184 255° West  Level FlightAware Approximate
Sun 07:54:17 PM 42.1553 -85.8553 268° West 286 329 10,000  Level Chicago Center
Sun 07:55:00 PM 42.1551 -85.9915 255° West  Level FlightAware Approximate
Sun 07:55:19 PM 42.1500 -85.9731 267° West 291 335 10,000  Level Chicago Center
Sun 07:56:00 PM 42.1420 -86.0650 257° West  Level FlightAware Approximate
Sun 07:56:21 PM 42.1453 -86.0775 267° West 283 326 10,000  Level Chicago Center
Sun 07:57:00 PM 42.1347 -86.1560 273° West  Level FlightAware Approximate
Sun 07:57:23 PM 42.1450 -86.1817 270° West 281 323 10,000  Level Chicago Center
Sun 07:58:25 PM 42.1458 -86.3069 271° West 281 323 10,000  Level Chicago Center
Sun 07:59:30 PM 42.1475 -86.4125 271° West 284 327 10,000 -520 Level Chicago Center
Sun 08:00:32 PM 42.1492 -86.5158 271° West 278 320 8,900 -968 Descending Chicago Center
Sun 08:01:34 PM 42.1506 -86.6128 271° West 263 303 8,000 -435 Descending Chicago Center
Sun 08:02:36 PM 42.1511 -86.7278 270° West 256 295 8,000  Level Chicago Center
Sun 08:03:38 PM 42.1525 -86.8253 271° West 261 300 8,000  Level Chicago Center
Sun 08:04:40 PM 42.1528 -86.9256 270° West 267 307 8,000  Level Chicago Center
Sun 08:05:42 PM 42.1592 -87.0247 275° West 267 307 8,000  Level Chicago Center
Sun 08:06:44 PM 42.1661 -87.1217 276° West 265 305 8,000  Level Chicago Center
Sun 08:07:46 PM 42.1739 -87.2408 275° West 268 308 8,000  Level Chicago Center
Sun 08:08:48 PM 42.1811 -87.3408 276° West 270 311 8,000  Level Chicago Center
Sun 08:09:50 PM 42.1753 -87.4444 266° West 277 319 8,000 -919 Level Chicago Center
Sun 08:10:52 PM 42.1689 -87.5439 265° West 274 315 6,100 -1,839 Descending Chicago Center
Sun 08:11:54 PM 42.1633 -87.6414 266° West 266 306 4,200 -1,403 Descending Chicago Center
Sun 08:12:56 PM 42.1303 -87.7414 246° West 246 283 3,200 -968 Descending Chicago Center

Login

Don't have an account? Register now (free) for customized features, flight alerts, and more!